sensor_id;sensor_type;location;lat;lon;timestamp;temperature;humidity
1277;DHT22;631;51.024;13.826;2022-08-03T00:00:41;19.90;99.90
1277;DHT22;631;51.024;13.826;2022-08-03T00:03:06;19.90;99.90
1277;DHT22;631;51.024;13.826;2022-08-03T00:05:32;19.80;99.90
1277;DHT22;631;51.024;13.826;2022-08-03T00:07:59;19.80;99.90
1277;DHT22;631;51.024;13.826;2022-08-03T00:10:24;19.70;99.90
1277;DHT22;631;51.024;13.826;2022-08-03T00:12:51;19.70;99.90
1277;DHT22;631;51.024;13.826;2022-08-03T00:15:17;19.70;99.90
1277;DHT22;631;51.024;13.826;2022-08-03T00:17:44;19.60;99.90
1277;DHT22;631;51.024;13.826;2022-08-03T00:20:10;19.50;99.90
1277;DHT22;631;51.024;13.826;2022-08-03T00:22:36;19.50;99.90
1277;DHT22;631;51.024;13.826;2022-08-03T00:25:02;19.50;99.90
1277;DHT22;631;51.024;13.826;2022-08-03T00:27:28;19.50;99.90
1277;DHT22;631;51.024;13.826;2022-08-03T00:29:53;19.40;99.90
1277;DHT22;631;51.024;13.826;2022-08-03T00:32:19;19.40;99.90
1277;DHT22;631;51.024;13.826;2022-08-03T00:34:44;19.40;99.90
1277;DHT22;631;51.024;13.826;2022-08-03T00:37:10;19.30;99.90
1277;DHT22;631;51.024;13.826;2022-08-03T00:39:35;19.30;99.90
1277;DHT22;631;51.024;13.826;2022-08-03T00:42:03;19.20;99.90
1277;DHT22;631;51.024;13.826;2022-08-03T00:44:28;19.20;99.90
1277;DHT22;631;51.024;13.826;2022-08-03T00:46:54;19.20;99.90
1277;DHT22;631;51.024;13.826;2022-08-03T00:49:20;19.20;99.90
1277;DHT22;631;51.024;13.826;2022-08-03T00:51:46;19.20;99.90
1277;DHT22;631;51.024;13.826;2022-08-03T00:54:12;19.10;99.90
1277;DHT22;631;51.024;13.826;2022-08-03T00:56:38;19.10;99.90
1277;DHT22;631;51.024;13.826;2022-08-03T00:59:05;19.00;99.90
1277;DHT22;631;51.024;13.826;2022-08-03T01:01:31;19.00;99.90
1277;DHT22;631;51.024;13.826;2022-08-03T01:03:56;18.90;99.90
1277;DHT22;631;51.024;13.826;2022-08-03T01:06:31;18.90;99.90
1277;DHT22;631;51.024;13.826;2022-08-03T01:11:38;18.80;99.90
1277;DHT22;631;51.024;13.826;2022-08-03T01:14:17;18.80;99.90
1277;DHT22;631;51.024;13.826;2022-08-03T01:17:09;18.70;99.90
1277;DHT22;631;51.024;13.826;2022-08-03T01:19:48;18.70;99.90
1277;DHT22;631;51.024;13.826;2022-08-03T01:25:05;18.60;99.90
1277;DHT22;631;51.024;13.826;2022-08-03T01:27:56;18.60;99.90
1277;DHT22;631;51.024;13.826;2022-08-03T01:30:31;18.60;99.90
1277;DHT22;631;51.024;13.826;2022-08-03T01:33:07;18.50;99.90
1277;DHT22;631;51.024;13.826;2022-08-03T01:35:40;18.50;99.90
1277;DHT22;631;51.024;13.826;2022-08-03T01:38:18;18.40;99.90
1277;DHT22;631;51.024;13.826;2022-08-03T01:40:46;18.40;99.90
1277;DHT22;631;51.024;13.826;2022-08-03T01:43:17;18.30;99.90
1277;DHT22;631;51.024;13.826;2022-08-03T01:45:43;18.30;99.90
1277;DHT22;631;51.024;13.826;2022-08-03T01:48:11;18.20;99.90
1277;DHT22;631;51.024;13.826;2022-08-03T01:50:40;18.20;99.90
1277;DHT22;631;51.024;13.826;2022-08-03T01:53:08;18.20;99.90
1277;DHT22;631;51.024;13.826;2022-08-03T01:55:35;18.10;99.90
1277;DHT22;631;51.024;13.826;2022-08-03T01:58:03;18.00;99.90
1277;DHT22;631;51.024;13.826;2022-08-03T02:00:31;18.00;99.90
1277;DHT22;631;51.024;13.826;2022-08-03T02:02:57;18.00;99.90
1277;DHT22;631;51.024;13.826;2022-08-03T02:05:24;17.90;99.90
1277;DHT22;631;51.024;13.826;2022-08-03T02:07:51;17.90;99.90
1277;DHT22;631;51.024;13.826;2022-08-03T02:10:19;17.90;99.90
1277;DHT22;631;51.024;13.826;2022-08-03T02:12:45;17.80;99.90
1277;DHT22;631;51.024;13.826;2022-08-03T02:15:14;17.80;99.90
1277;DHT22;631;51.024;13.826;2022-08-03T02:17:41;17.80;99.90
1277;DHT22;631;51.024;13.826;2022-08-03T02:20:10;17.70;99.90
1277;DHT22;631;51.024;13.826;2022-08-03T02:22:38;17.70;99.90
1277;DHT22;631;51.024;13.826;2022-08-03T02:25:07;17.70;99.90
1277;DHT22;631;51.024;13.826;2022-08-03T02:27:33;17.70;99.90
1277;DHT22;631;51.024;13.826;2022-08-03T02:30:06;17.70;99.90
1277;DHT22;631;51.024;13.826;2022-08-03T02:32:36;17.60;99.90
1277;DHT22;631;51.024;13.826;2022-08-03T02:35:04;17.60;99.90
1277;DHT22;631;51.024;13.826;2022-08-03T02:37:33;17.60;99.90
1277;DHT22;631;51.024;13.826;2022-08-03T02:40:03;17.60;99.90
1277;DHT22;631;51.024;13.826;2022-08-03T02:42:34;17.60;99.90
1277;DHT22;631;51.024;13.826;2022-08-03T02:45:03;17.60;99.90
1277;DHT22;631;51.024;13.826;2022-08-03T02:47:31;17.60;99.90
1277;DHT22;631;51.024;13.826;2022-08-03T02:50:00;17.50;99.90
1277;DHT22;631;51.024;13.826;2022-08-03T02:52:27;17.50;99.90
1277;DHT22;631;51.024;13.826;2022-08-03T02:54:58;17.50;99.90
1277;DHT22;631;51.024;13.826;2022-08-03T02:57:26;17.50;99.90
1277;DHT22;631;51.024;13.826;2022-08-03T02:59:52;17.50;99.90
1277;DHT22;631;51.024;13.826;2022-08-03T03:02:18;17.40;99.90
1277;DHT22;631;51.024;13.826;2022-08-03T03:04:45;17.50;99.90
1277;DHT22;631;51.024;13.826;2022-08-03T03:07:12;17.40;99.90
1277;DHT22;631;51.024;13.826;2022-08-03T03:09:39;17.40;99.90
1277;DHT22;631;51.024;13.826;2022-08-03T03:12:07;17.40;99.90
1277;DHT22;631;51.024;13.826;2022-08-03T03:14:35;17.40;99.90
1277;DHT22;631;51.024;13.826;2022-08-03T03:17:02;17.30;99.90
1277;DHT22;631;51.024;13.826;2022-08-03T03:19:29;17.40;99.90
1277;DHT22;631;51.024;13.826;2022-08-03T03:22:00;17.30;99.90
1277;DHT22;631;51.024;13.826;2022-08-03T03:24:28;17.30;99.90
1277;DHT22;631;51.024;13.826;2022-08-03T03:26:55;17.30;99.90
1277;DHT22;631;51.024;13.826;2022-08-03T03:29:21;17.30;99.90
1277;DHT22;631;51.024;13.826;2022-08-03T03:31:47;17.30;99.90
1277;DHT22;631;51.024;13.826;2022-08-03T03:34:13;17.20;99.90
1277;DHT22;631;51.024;13.826;2022-08-03T03:36:39;17.20;99.90
1277;DHT22;631;51.024;13.826;2022-08-03T03:39:04;17.20;99.90
1277;DHT22;631;51.024;13.826;2022-08-03T03:41:30;17.20;99.90
1277;DHT22;631;51.024;13.826;2022-08-03T03:43:56;17.20;99.90
1277;DHT22;631;51.024;13.826;2022-08-03T03:46:22;17.20;99.90
1277;DHT22;631;51.024;13.826;2022-08-03T03:48:48;17.10;99.90
1277;DHT22;631;51.024;13.826;2022-08-03T03:51:14;17.10;99.90
1277;DHT22;631;51.024;13.826;2022-08-03T03:53:40;17.10;99.90
1277;DHT22;631;51.024;13.826;2022-08-03T03:56:06;17.10;99.90
1277;DHT22;631;51.024;13.826;2022-08-03T03:58:32;17.10;99.90
1277;DHT22;631;51.024;13.826;2022-08-03T04:00:58;17.10;99.90
1277;DHT22;631;51.024;13.826;2022-08-03T04:03:23;17.10;99.90
1277;DHT22;631;51.024;13.826;2022-08-03T04:05:49;17.10;99.90
1277;DHT22;631;51.024;13.826;2022-08-03T04:08:34;17.10;99.90
1277;DHT22;631;51.024;13.826;2022-08-03T04:13:54;17.10;99.90
1277;DHT22;631;51.024;13.826;2022-08-03T04:16:22;17.10;99.90
1277;DHT22;631;51.024;13.826;2022-08-03T04:18:53;17.10;99.90
1277;DHT22;631;51.024;13.826;2022-08-03T04:21:20;17.20;99.90
1277;DHT22;631;51.024;13.826;2022-08-03T04:23:49;17.10;99.90
1277;DHT22;631;51.024;13.826;2022-08-03T04:26:18;17.20;99.90
1277;DHT22;631;51.024;13.826;2022-08-03T04:28:46;17.20;99.90
1277;DHT22;631;51.024;13.826;2022-08-03T04:31:13;17.30;99.90
1277;DHT22;631;51.024;13.826;2022-08-03T04:33:42;17.30;99.90
1277;DHT22;631;51.024;13.826;2022-08-03T04:36:11;17.30;99.90
1277;DHT22;631;51.024;13.826;2022-08-03T04:39:01;17.40;99.90
1277;DHT22;631;51.024;13.826;2022-08-03T04:41:27;17.50;99.90
1277;DHT22;631;51.024;13.826;2022-08-03T04:43:57;17.60;99.90
1277;DHT22;631;51.024;13.826;2022-08-03T04:46:26;17.60;99.90
1277;DHT22;631;51.024;13.826;2022-08-03T04:48:54;17.70;99.90
1277;DHT22;631;51.024;13.826;2022-08-03T04:51:20;17.80;99.90
1277;DHT22;631;51.024;13.826;2022-08-03T04:53:46;17.80;99.90
1277;DHT22;631;51.024;13.826;2022-08-03T04:56:11;17.90;99.90
1277;DHT22;631;51.024;13.826;2022-08-03T04:58:37;18.00;99.90
1277;DHT22;631;51.024;13.826;2022-08-03T05:01:02;18.10;99.90
1277;DHT22;631;51.024;13.826;2022-08-03T05:03:28;18.10;99.90
1277;DHT22;631;51.024;13.826;2022-08-03T05:05:54;18.10;99.90
1277;DHT22;631;51.024;13.826;2022-08-03T05:08:20;18.10;99.90
1277;DHT22;631;51.024;13.826;2022-08-03T05:10:46;18.10;99.90
1277;DHT22;631;51.024;13.826;2022-08-03T05:13:11;18.20;99.90
1277;DHT22;631;51.024;13.826;2022-08-03T05:15:39;18.20;99.90
1277;DHT22;631;51.024;13.826;2022-08-03T05:18:04;18.30;99.90
1277;DHT22;631;51.024;13.826;2022-08-03T05:20:30;18.50;99.90
1277;DHT22;631;51.024;13.826;2022-08-03T05:22:56;18.60;99.90
1277;DHT22;631;51.024;13.826;2022-08-03T05:25:22;18.70;99.90
1277;DHT22;631;51.024;13.826;2022-08-03T05:27:48;18.80;99.90
1277;DHT22;631;51.024;13.826;2022-08-03T05:30:14;18.90;99.90
1277;DHT22;631;51.024;13.826;2022-08-03T05:32:40;19.00;99.90
1277;DHT22;631;51.024;13.826;2022-08-03T05:35:06;19.10;99.90
1277;DHT22;631;51.024;13.826;2022-08-03T05:37:32;19.30;99.90
1277;DHT22;631;51.024;13.826;2022-08-03T05:39:57;19.50;99.90
1277;DHT22;631;51.024;13.826;2022-08-03T05:42:23;19.60;99.90
1277;DHT22;631;51.024;13.826;2022-08-03T05:44:48;19.70;99.90
1277;DHT22;631;51.024;13.826;2022-08-03T05:47:14;19.90;99.90
1277;DHT22;631;51.024;13.826;2022-08-03T05:49:40;19.90;99.90
1277;DHT22;631;51.024;13.826;2022-08-03T05:52:05;20.10;99.90
1277;DHT22;631;51.024;13.826;2022-08-03T05:54:31;20.20;99.90
1277;DHT22;631;51.024;13.826;2022-08-03T05:56:56;20.40;99.90
1277;DHT22;631;51.024;13.826;2022-08-03T05:59:22;20.50;99.90
1277;DHT22;631;51.024;13.826;2022-08-03T06:01:47;20.50;99.90
1277;DHT22;631;51.024;13.826;2022-08-03T06:04:13;20.60;99.90
1277;DHT22;631;51.024;13.826;2022-08-03T06:06:40;20.70;99.90
1277;DHT22;631;51.024;13.826;2022-08-03T06:09:06;20.80;99.90
1277;DHT22;631;51.024;13.826;2022-08-03T06:11:32;21.00;99.90
1277;DHT22;631;51.024;13.826;2022-08-03T06:13:57;21.10;99.90
1277;DHT22;631;51.024;13.826;2022-08-03T06:16:23;21.20;99.90
1277;DHT22;631;51.024;13.826;2022-08-03T06:18:48;21.20;99.90
1277;DHT22;631;51.024;13.826;2022-08-03T06:21:14;21.50;99.90
1277;DHT22;631;51.024;13.826;2022-08-03T06:23:40;21.50;99.90
1277;DHT22;631;51.024;13.826;2022-08-03T06:26:07;21.50;99.90
1277;DHT22;631;51.024;13.826;2022-08-03T06:28:33;21.70;99.90
1277;DHT22;631;51.024;13.826;2022-08-03T06:30:58;21.90;99.90
1277;DHT22;631;51.024;13.826;2022-08-03T06:33:24;22.00;99.90
1277;DHT22;631;51.024;13.826;2022-08-03T06:35:50;22.20;99.90
1277;DHT22;631;51.024;13.826;2022-08-03T06:38:16;22.20;99.90
1277;DHT22;631;51.024;13.826;2022-08-03T06:40:41;22.30;99.90
1277;DHT22;631;51.024;13.826;2022-08-03T06:43:07;22.50;99.90
1277;DHT22;631;51.024;13.826;2022-08-03T06:45:33;22.60;99.90
1277;DHT22;631;51.024;13.826;2022-08-03T06:48:09;22.70;99.90
1277;DHT22;631;51.024;13.826;2022-08-03T06:50:37;22.80;99.80
1277;DHT22;631;51.024;13.826;2022-08-03T06:53:03;22.80;99.00
1277;DHT22;631;51.024;13.826;2022-08-03T06:55:30;23.00;99.20
1277;DHT22;631;51.024;13.826;2022-08-03T06:57:56;23.10;98.60
1277;DHT22;631;51.024;13.826;2022-08-03T07:00:21;23.30;97.90
1277;DHT22;631;51.024;13.826;2022-08-03T07:02:47;23.40;97.60
1277;DHT22;631;51.024;13.826;2022-08-03T07:05:13;23.50;97.30
1277;DHT22;631;51.024;13.826;2022-08-03T07:07:39;23.70;96.30
1277;DHT22;631;51.024;13.826;2022-08-03T07:10:06;23.70;95.70
1277;DHT22;631;51.024;13.826;2022-08-03T07:12:33;23.80;95.20
1277;DHT22;631;51.024;13.826;2022-08-03T07:15:00;23.90;94.80
1277;DHT22;631;51.024;13.826;2022-08-03T07:17:26;24.00;94.50
1277;DHT22;631;51.024;13.826;2022-08-03T07:19:51;24.10;94.60
1277;DHT22;631;51.024;13.826;2022-08-03T07:22:17;24.30;93.90
1277;DHT22;631;51.024;13.826;2022-08-03T07:24:43;24.40;93.70
1277;DHT22;631;51.024;13.826;2022-08-03T07:27:10;24.60;93.90
1277;DHT22;631;51.024;13.826;2022-08-03T07:29:36;24.70;92.90
1277;DHT22;631;51.024;13.826;2022-08-03T07:32:02;24.90;92.60
1277;DHT22;631;51.024;13.826;2022-08-03T07:34:29;25.10;92.30
1277;DHT22;631;51.024;13.826;2022-08-03T07:36:54;25.20;91.60
1277;DHT22;631;51.024;13.826;2022-08-03T07:39:20;25.40;91.10
1277;DHT22;631;51.024;13.826;2022-08-03T07:41:45;25.50;90.30
1277;DHT22;631;51.024;13.826;2022-08-03T07:44:12;25.70;89.70
1277;DHT22;631;51.024;13.826;2022-08-03T07:46:38;25.90;88.40
1277;DHT22;631;51.024;13.826;2022-08-03T07:49:04;26.00;86.90
1277;DHT22;631;51.024;13.826;2022-08-03T07:51:29;26.10;85.60
1277;DHT22;631;51.024;13.826;2022-08-03T07:53:55;26.20;84.30
1277;DHT22;631;51.024;13.826;2022-08-03T07:56:22;26.40;82.10
1277;DHT22;631;51.024;13.826;2022-08-03T07:58:50;26.50;82.90
1277;DHT22;631;51.024;13.826;2022-08-03T08:01:16;26.70;82.20
1277;DHT22;631;51.024;13.826;2022-08-03T08:03:45;26.80;80.10
1277;DHT22;631;51.024;13.826;2022-08-03T08:06:11;26.90;77.30
1277;DHT22;631;51.024;13.826;2022-08-03T08:08:37;27.00;77.00
1277;DHT22;631;51.024;13.826;2022-08-03T08:11:04;27.10;75.90
1277;DHT22;631;51.024;13.826;2022-08-03T08:13:30;27.30;74.00
1277;DHT22;631;51.024;13.826;2022-08-03T08:15:56;27.50;71.70
1277;DHT22;631;51.024;13.826;2022-08-03T08:18:21;27.60;70.50
1277;DHT22;631;51.024;13.826;2022-08-03T08:20:49;27.70;68.90
1277;DHT22;631;51.024;13.826;2022-08-03T08:23:14;27.80;68.20
1277;DHT22;631;51.024;13.826;2022-08-03T08:25:47;28.00;67.00
1277;DHT22;631;51.024;13.826;2022-08-03T08:28:13;28.10;67.20
1277;DHT22;631;51.024;13.826;2022-08-03T08:30:38;28.20;65.50
1277;DHT22;631;51.024;13.826;2022-08-03T08:33:04;28.40;66.00
1277;DHT22;631;51.024;13.826;2022-08-03T08:35:29;28.50;62.60
1277;DHT22;631;51.024;13.826;2022-08-03T08:37:55;28.60;62.10
1277;DHT22;631;51.024;13.826;2022-08-03T08:40:21;28.80;59.90
1277;DHT22;631;51.024;13.826;2022-08-03T08:42:47;29.00;60.20
1277;DHT22;631;51.024;13.826;2022-08-03T08:45:13;29.20;59.20
1277;DHT22;631;51.024;13.826;2022-08-03T08:47:44;29.30;57.20
1277;DHT22;631;51.024;13.826;2022-08-03T08:50:11;29.50;57.90
1277;DHT22;631;51.024;13.826;2022-08-03T08:52:39;29.60;56.80
1277;DHT22;631;51.024;13.826;2022-08-03T08:55:08;29.80;55.60
1277;DHT22;631;51.024;13.826;2022-08-03T08:57:37;29.90;55.60
1277;DHT22;631;51.024;13.826;2022-08-03T09:00:09;30.00;54.80
1277;DHT22;631;51.024;13.826;2022-08-03T09:02:37;30.10;54.40
1277;DHT22;631;51.024;13.826;2022-08-03T09:05:03;30.40;52.10
1277;DHT22;631;51.024;13.826;2022-08-03T09:07:29;30.30;51.40
1277;DHT22;631;51.024;13.826;2022-08-03T09:09:55;30.30;51.80
1277;DHT22;631;51.024;13.826;2022-08-03T09:12:21;30.30;50.90
1277;DHT22;631;51.024;13.826;2022-08-03T09:14:46;30.40;51.30
1277;DHT22;631;51.024;13.826;2022-08-03T09:17:12;30.30;50.50
1277;DHT22;631;51.024;13.826;2022-08-03T09:19:38;30.30;51.70
1277;DHT22;631;51.024;13.826;2022-08-03T09:24:33;30.60;51.60
1277;DHT22;631;51.024;13.826;2022-08-03T09:26:59;30.80;51.20
1277;DHT22;631;51.024;13.826;2022-08-03T09:29:24;31.00;50.70
1277;DHT22;631;51.024;13.826;2022-08-03T09:32:00;31.30;49.40
1277;DHT22;631;51.024;13.826;2022-08-03T09:34:27;31.50;47.50
1277;DHT22;631;51.024;13.826;2022-08-03T09:36:53;31.50;46.90
1277;DHT22;631;51.024;13.826;2022-08-03T09:39:23;31.70;45.90
1277;DHT22;631;51.024;13.826;2022-08-03T09:42:16;31.90;46.50
1277;DHT22;631;51.024;13.826;2022-08-03T09:44:44;32.10;44.30
1277;DHT22;631;51.024;13.826;2022-08-03T09:47:11;32.30;43.50
1277;DHT22;631;51.024;13.826;2022-08-03T09:49:38;32.40;42.40
1277;DHT22;631;51.024;13.826;2022-08-03T09:52:15;32.50;40.70
1277;DHT22;631;51.024;13.826;2022-08-03T09:54:41;32.60;39.80
1277;DHT22;631;51.024;13.826;2022-08-03T09:57:07;32.70;40.60
1277;DHT22;631;51.024;13.826;2022-08-03T09:59:33;32.80;38.30
1277;DHT22;631;51.024;13.826;2022-08-03T10:01:59;32.90;38.50
1277;DHT22;631;51.024;13.826;2022-08-03T10:04:25;33.00;37.60
1277;DHT22;631;51.024;13.826;2022-08-03T10:07:09;33.10;37.30
1277;DHT22;631;51.024;13.826;2022-08-03T10:09:35;33.10;36.30
1277;DHT22;631;51.024;13.826;2022-08-03T10:12:09;33.00;37.30
1277;DHT22;631;51.024;13.826;2022-08-03T10:14:37;32.80;36.50
1277;DHT22;631;51.024;13.826;2022-08-03T10:17:03;32.70;36.40
1277;DHT22;631;51.024;13.826;2022-08-03T10:19:29;32.50;37.10
1277;DHT22;631;51.024;13.826;2022-08-03T10:21:56;32.40;36.70
1277;DHT22;631;51.024;13.826;2022-08-03T10:24:27;32.50;38.00
1277;DHT22;631;51.024;13.826;2022-08-03T10:27:01;32.70;37.60
1277;DHT22;631;51.024;13.826;2022-08-03T10:29:28;33.00;36.10
1277;DHT22;631;51.024;13.826;2022-08-03T10:31:58;32.90;35.20
1277;DHT22;631;51.024;13.826;2022-08-03T10:34:33;32.70;34.90
1277;DHT22;631;51.024;13.826;2022-08-03T10:37:01;32.80;35.30
1277;DHT22;631;51.024;13.826;2022-08-03T10:39:28;32.90;36.10
1277;DHT22;631;51.024;13.826;2022-08-03T10:41:54;33.20;35.50
1277;DHT22;631;51.024;13.826;2022-08-03T10:44:24;33.40;35.60
1277;DHT22;631;51.024;13.826;2022-08-03T10:46:51;33.60;34.80
1277;DHT22;631;51.024;13.826;2022-08-03T10:49:18;33.80;35.10
1277;DHT22;631;51.024;13.826;2022-08-03T10:51:45;34.00;33.80
1277;DHT22;631;51.024;13.826;2022-08-03T10:54:37;34.20;32.90
1277;DHT22;631;51.024;13.826;2022-08-03T10:57:42;34.40;33.10
1277;DHT22;631;51.024;13.826;2022-08-03T11:00:08;34.60;31.60
1277;DHT22;631;51.024;13.826;2022-08-03T11:05:39;34.60;30.30
1277;DHT22;631;51.024;13.826;2022-08-03T11:08:41;34.60;29.90
1277;DHT22;631;51.024;13.826;2022-08-03T11:14:06;34.30;31.60
1277;DHT22;631;51.024;13.826;2022-08-03T11:16:38;34.60;30.80
1277;DHT22;631;51.024;13.826;2022-08-03T11:19:05;34.70;29.40
1277;DHT22;631;51.024;13.826;2022-08-03T11:30:06;34.40;29.40
1277;DHT22;631;51.024;13.826;2022-08-03T11:43:00;34.90;28.60
1277;DHT22;631;51.024;13.826;2022-08-03T11:45:25;35.00;29.10
1277;DHT22;631;51.024;13.826;2022-08-03T11:47:53;35.20;28.80
1277;DHT22;631;51.024;13.826;2022-08-03T11:50:20;35.20;28.80
1277;DHT22;631;51.024;13.826;2022-08-03T11:52:46;35.40;28.90
1277;DHT22;631;51.024;13.826;2022-08-03T11:55:14;35.50;28.50
1277;DHT22;631;51.024;13.826;2022-08-03T11:57:40;35.80;28.10
1277;DHT22;631;51.024;13.826;2022-08-03T12:00:27;36.10;27.60
1277;DHT22;631;51.024;13.826;2022-08-03T12:03:02;36.30;26.30
1277;DHT22;631;51.024;13.826;2022-08-03T12:05:39;36.50;26.20
1277;DHT22;631;51.024;13.826;2022-08-03T12:08:07;36.80;25.50
1277;DHT22;631;51.024;13.826;2022-08-03T12:10:33;36.80;25.20
1277;DHT22;631;51.024;13.826;2022-08-03T12:13:01;37.00;25.10
1277;DHT22;631;51.024;13.826;2022-08-03T12:15:28;37.00;24.80
1277;DHT22;631;51.024;13.826;2022-08-03T12:17:56;37.10;24.50
1277;DHT22;631;51.024;13.826;2022-08-03T12:20:24;37.30;25.00
1277;DHT22;631;51.024;13.826;2022-08-03T12:22:50;37.40;24.00
1277;DHT22;631;51.024;13.826;2022-08-03T12:25:23;37.60;24.40
1277;DHT22;631;51.024;13.826;2022-08-03T12:27:51;37.80;23.70
1277;DHT22;631;51.024;13.826;2022-08-03T12:30:17;38.00;23.10
1277;DHT22;631;51.024;13.826;2022-08-03T12:32:43;38.20;22.80
1277;DHT22;631;51.024;13.826;2022-08-03T12:35:10;38.40;22.70
1277;DHT22;631;51.024;13.826;2022-08-03T12:37:47;38.70;21.90
1277;DHT22;631;51.024;13.826;2022-08-03T12:40:13;38.70;21.30
1277;DHT22;631;51.024;13.826;2022-08-03T12:42:41;38.90;21.40
1277;DHT22;631;51.024;13.826;2022-08-03T12:45:22;39.00;21.30
1277;DHT22;631;51.024;13.826;2022-08-03T12:47:55;38.80;20.70
1277;DHT22;631;51.024;13.826;2022-08-03T12:50:32;38.90;21.50
1277;DHT22;631;51.024;13.826;2022-08-03T12:52:59;39.00;21.10
1277;DHT22;631;51.024;13.826;2022-08-03T12:55:25;39.30;21.00
1277;DHT22;631;51.024;13.826;2022-08-03T12:58:01;39.50;20.20
1277;DHT22;631;51.024;13.826;2022-08-03T13:00:27;39.60;20.30
1277;DHT22;631;51.024;13.826;2022-08-03T13:03:03;39.80;20.00
1277;DHT22;631;51.024;13.826;2022-08-03T13:05:30;40.10;19.70
1277;DHT22;631;51.024;13.826;2022-08-03T13:07:56;40.50;19.10
1277;DHT22;631;51.024;13.826;2022-08-03T13:10:30;40.80;18.90
1277;DHT22;631;51.024;13.826;2022-08-03T13:12:57;41.00;19.00
1277;DHT22;631;51.024;13.826;2022-08-03T13:15:27;41.40;18.50
1277;DHT22;631;51.024;13.826;2022-08-03T13:17:56;41.80;18.20
1277;DHT22;631;51.024;13.826;2022-08-03T13:20:22;42.20;17.40
1277;DHT22;631;51.024;13.826;2022-08-03T13:22:48;42.70;17.10
1277;DHT22;631;51.024;13.826;2022-08-03T13:25:14;42.80;15.80
1277;DHT22;631;51.024;13.826;2022-08-03T13:27:40;43.00;16.00
1277;DHT22;631;51.024;13.826;2022-08-03T13:30:07;43.60;15.40
1277;DHT22;631;51.024;13.826;2022-08-03T13:32:33;44.00;14.80
1277;DHT22;631;51.024;13.826;2022-08-03T13:34:59;44.60;14.20
1277;DHT22;631;51.024;13.826;2022-08-03T13:37:27;45.40;12.90
1277;DHT22;631;51.024;13.826;2022-08-03T13:39:52;45.60;12.10
1277;DHT22;631;51.024;13.826;2022-08-03T13:42:18;45.50;12.30
1277;DHT22;631;51.024;13.826;2022-08-03T13:44:43;45.80;11.60
1277;DHT22;631;51.024;13.826;2022-08-03T13:47:09;44.90;10.70
1277;DHT22;631;51.024;13.826;2022-08-03T13:49:35;45.30;10.60
1277;DHT22;631;51.024;13.826;2022-08-03T13:52:00;45.20;9.70
1277;DHT22;631;51.024;13.826;2022-08-03T13:54:26;44.70;10.30
1277;DHT22;631;51.024;13.826;2022-08-03T13:56:52;44.80;10.70
1277;DHT22;631;51.024;13.826;2022-08-03T13:59:19;45.60;10.10
1277;DHT22;631;51.024;13.826;2022-08-03T14:01:46;45.90;9.90
1277;DHT22;631;51.024;13.826;2022-08-03T14:04:11;45.90;9.50
1277;DHT22;631;51.024;13.826;2022-08-03T14:06:37;46.30;9.80
1277;DHT22;631;51.024;13.826;2022-08-03T14:09:03;46.50;9.10
1277;DHT22;631;51.024;13.826;2022-08-03T14:11:28;46.90;8.70
1277;DHT22;631;51.024;13.826;2022-08-03T14:13:54;46.80;8.60
1277;DHT22;631;51.024;13.826;2022-08-03T14:16:20;46.30;8.80
1277;DHT22;631;51.024;13.826;2022-08-03T14:18:45;46.30;8.90
1277;DHT22;631;51.024;13.826;2022-08-03T14:21:11;46.80;7.90
1277;DHT22;631;51.024;13.826;2022-08-03T14:23:37;46.90;8.10
1277;DHT22;631;51.024;13.826;2022-08-03T14:26:07;46.90;7.90
1277;DHT22;631;51.024;13.826;2022-08-03T14:28:32;47.00;7.80
1277;DHT22;631;51.024;13.826;2022-08-03T14:30:58;47.20;7.60
1277;DHT22;631;51.024;13.826;2022-08-03T14:33:24;46.70;8.10
1277;DHT22;631;51.024;13.826;2022-08-03T14:35:50;46.60;7.70
1277;DHT22;631;51.024;13.826;2022-08-03T14:38:17;46.80;7.80
1277;DHT22;631;51.024;13.826;2022-08-03T14:40:43;46.90;8.60
1277;DHT22;631;51.024;13.826;2022-08-03T14:43:09;46.70;8.20
1277;DHT22;631;51.024;13.826;2022-08-03T14:45:35;46.90;7.90
1277;DHT22;631;51.024;13.826;2022-08-03T14:48:01;46.90;7.40
1277;DHT22;631;51.024;13.826;2022-08-03T14:50:26;47.00;7.60
1277;DHT22;631;51.024;13.826;2022-08-03T14:52:55;46.40;7.90
1277;DHT22;631;51.024;13.826;2022-08-03T14:55:21;46.40;7.40
1277;DHT22;631;51.024;13.826;2022-08-03T14:57:46;46.40;8.00
1277;DHT22;631;51.024;13.826;2022-08-03T15:00:12;46.40;8.30
1277;DHT22;631;51.024;13.826;2022-08-03T15:02:38;46.20;8.10
1277;DHT22;631;51.024;13.826;2022-08-03T15:05:04;45.80;8.40
1277;DHT22;631;51.024;13.826;2022-08-03T15:07:30;45.90;8.50
1277;DHT22;631;51.024;13.826;2022-08-03T15:09:55;46.40;7.90
1277;DHT22;631;51.024;13.826;2022-08-03T15:12:21;45.90;8.00
1277;DHT22;631;51.024;13.826;2022-08-03T15:14:46;45.80;8.60
1277;DHT22;631;51.024;13.826;2022-08-03T15:17:12;46.10;8.20
1277;DHT22;631;51.024;13.826;2022-08-03T15:19:37;45.80;8.10
1277;DHT22;631;51.024;13.826;2022-08-03T15:22:04;45.90;7.90
1277;DHT22;631;51.024;13.826;2022-08-03T15:24:30;46.00;8.30
1277;DHT22;631;51.024;13.826;2022-08-03T15:26:55;45.70;8.60
1277;DHT22;631;51.024;13.826;2022-08-03T15:29:21;45.40;8.30
1277;DHT22;631;51.024;13.826;2022-08-03T15:31:47;44.80;9.40
1277;DHT22;631;51.024;13.826;2022-08-03T15:34:12;44.80;9.20
1277;DHT22;631;51.024;13.826;2022-08-03T15:36:38;45.00;8.50
1277;DHT22;631;51.024;13.826;2022-08-03T15:39:04;44.70;8.80
1277;DHT22;631;51.024;13.826;2022-08-03T15:41:30;44.20;8.80
1277;DHT22;631;51.024;13.826;2022-08-03T15:43:56;44.10;9.00
1277;DHT22;631;51.024;13.826;2022-08-03T15:46:21;43.50;8.90
1277;DHT22;631;51.024;13.826;2022-08-03T15:48:47;42.60;10.90
1277;DHT22;631;51.024;13.826;2022-08-03T15:51:13;42.50;10.90
1277;DHT22;631;51.024;13.826;2022-08-03T15:53:38;42.10;10.60
1277;DHT22;631;51.024;13.826;2022-08-03T15:56:04;42.20;10.80
1277;DHT22;631;51.024;13.826;2022-08-03T15:58:32;42.20;11.70
1277;DHT22;631;51.024;13.826;2022-08-03T16:00:59;42.30;10.90
1277;DHT22;631;51.024;13.826;2022-08-03T16:03:26;42.20;11.00
1277;DHT22;631;51.024;13.826;2022-08-03T16:05:53;42.20;12.20
1277;DHT22;631;51.024;13.826;2022-08-03T16:08:18;42.20;11.60
1277;DHT22;631;51.024;13.826;2022-08-03T16:10:46;42.00;11.90
1277;DHT22;631;51.024;13.826;2022-08-03T16:13:11;42.00;11.30
1277;DHT22;631;51.024;13.826;2022-08-03T16:15:37;41.80;12.70
1277;DHT22;631;51.024;13.826;2022-08-03T16:18:04;42.10;11.90
1277;DHT22;631;51.024;13.826;2022-08-03T16:20:30;42.10;12.40
1277;DHT22;631;51.024;13.826;2022-08-03T16:22:55;41.90;12.60
1277;DHT22;631;51.024;13.826;2022-08-03T16:25:21;42.10;12.30
1277;DHT22;631;51.024;13.826;2022-08-03T16:27:46;42.00;12.00
1277;DHT22;631;51.024;13.826;2022-08-03T16:30:14;41.80;11.60
1277;DHT22;631;51.024;13.826;2022-08-03T16:32:41;41.90;11.70
1277;DHT22;631;51.024;13.826;2022-08-03T16:35:07;41.80;11.70
1277;DHT22;631;51.024;13.826;2022-08-03T16:37:33;41.80;11.60
1277;DHT22;631;51.024;13.826;2022-08-03T16:39:59;41.90;11.60
1277;DHT22;631;51.024;13.826;2022-08-03T16:42:25;41.90;11.00